sensor_id;sensor_type;location;lat;lon;timestamp;temperature;humidity
33594;DHT22;19920;52.242;20.940;2024-02-28T00:00:37;11.50;99.90
33594;DHT22;19920;52.242;20.940;2024-02-28T00:03:03;11.60;99.90
33594;DHT22;19920;52.242;20.940;2024-02-28T00:05:29;11.70;99.90
33594;DHT22;19920;52.242;20.940;2024-02-28T00:07:54;11.70;99.90
33594;DHT22;19920;52.242;20.940;2024-02-28T00:10:20;11.80;99.90
33594;DHT22;19920;52.242;20.940;2024-02-28T00:12:45;11.80;99.90
33594;DHT22;19920;52.242;20.940;2024-02-28T00:15:11;11.80;99.90
33594;DHT22;19920;52.242;20.940;2024-02-28T00:17:40;11.80;99.90
33594;DHT22;19920;52.242;20.940;2024-02-28T00:20:07;11.80;99.90
33594;DHT22;19920;52.242;20.940;2024-02-28T00:22:33;11.70;99.90
33594;DHT22;19920;52.242;20.940;2024-02-28T00:24:59;11.70;99.90
33594;DHT22;19920;52.242;20.940;2024-02-28T00:27:26;11.70;99.90
33594;DHT22;19920;52.242;20.940;2024-02-28T00:29:52;11.70;99.90
33594;DHT22;19920;52.242;20.940;2024-02-28T00:32:17;11.70;99.90
33594;DHT22;19920;52.242;20.940;2024-02-28T00:34:43;11.60;99.90
33594;DHT22;19920;52.242;20.940;2024-02-28T00:37:09;11.60;99.90
33594;DHT22;19920;52.242;20.940;2024-02-28T00:39:35;11.60;99.90
33594;DHT22;19920;52.242;20.940;2024-02-28T00:42:00;11.60;99.90
33594;DHT22;19920;52.242;20.940;2024-02-28T00:44:26;11.60;99.90
33594;DHT22;19920;52.242;20.940;2024-02-28T00:46:51;11.70;99.90
33594;DHT22;19920;52.242;20.940;2024-02-28T00:49:17;11.70;99.90
33594;DHT22;19920;52.242;20.940;2024-02-28T00:51:43;11.60;99.90
33594;DHT22;19920;52.242;20.940;2024-02-28T00:54:08;11.60;99.90
33594;DHT22;19920;52.242;20.940;2024-02-28T00:56:34;11.60;99.90
33594;DHT22;19920;52.242;20.940;2024-02-28T00:59:00;11.50;99.90
33594;DHT22;19920;52.242;20.940;2024-02-28T01:01:25;11.60;99.90
33594;DHT22;19920;52.242;20.940;2024-02-28T01:03:51;11.50;99.90
33594;DHT22;19920;52.242;20.940;2024-02-28T01:06:16;11.50;99.90
33594;DHT22;19920;52.242;20.940;2024-02-28T01:08:42;11.50;99.90
33594;DHT22;19920;52.242;20.940;2024-02-28T01:11:08;11.50;99.90
33594;DHT22;19920;52.242;20.940;2024-02-28T01:13:33;11.50;99.90
33594;DHT22;19920;52.242;20.940;2024-02-28T01:15:59;11.40;99.90
33594;DHT22;19920;52.242;20.940;2024-02-28T01:18:25;11.30;99.90
33594;DHT22;19920;52.242;20.940;2024-02-28T01:20:51;11.30;99.90
33594;DHT22;19920;52.242;20.940;2024-02-28T01:23:19;11.30;99.90
33594;DHT22;19920;52.242;20.940;2024-02-28T01:25:44;11.40;99.90
33594;DHT22;19920;52.242;20.940;2024-02-28T01:28:10;11.40;99.90
33594;DHT22;19920;52.242;20.940;2024-02-28T01:30:35;11.40;99.90
33594;DHT22;19920;52.242;20.940;2024-02-28T01:33:01;11.50;99.90
33594;DHT22;19920;52.242;20.940;2024-02-28T01:35:27;11.40;99.90
33594;DHT22;19920;52.242;20.940;2024-02-28T01:37:52;11.20;99.90
33594;DHT22;19920;52.242;20.940;2024-02-28T01:40:18;11.20;99.90
33594;DHT22;19920;52.242;20.940;2024-02-28T01:42:44;11.20;99.90
33594;DHT22;19920;52.242;20.940;2024-02-28T01:45:13;11.20;99.90
33594;DHT22;19920;52.242;20.940;2024-02-28T01:47:40;11.10;99.90
33594;DHT22;19920;52.242;20.940;2024-02-28T01:50:07;11.10;99.90
33594;DHT22;19920;52.242;20.940;2024-02-28T01:52:34;11.00;99.90
33594;DHT22;19920;52.242;20.940;2024-02-28T01:54:59;11.00;99.90
33594;DHT22;19920;52.242;20.940;2024-02-28T01:57:25;11.10;99.90
33594;DHT22;19920;52.242;20.940;2024-02-28T01:59:52;11.00;99.90
33594;DHT22;19920;52.242;20.940;2024-02-28T02:02:20;11.00;99.90
33594;DHT22;19920;52.242;20.940;2024-02-28T02:04:45;11.00;99.90
33594;DHT22;19920;52.242;20.940;2024-02-28T02:07:11;11.00;99.90
33594;DHT22;19920;52.242;20.940;2024-02-28T02:09:37;11.00;99.90
33594;DHT22;19920;52.242;20.940;2024-02-28T02:12:02;11.10;99.90
33594;DHT22;19920;52.242;20.940;2024-02-28T02:14:28;11.00;99.90
33594;DHT22;19920;52.242;20.940;2024-02-28T02:16:54;11.00;99.90
33594;DHT22;19920;52.242;20.940;2024-02-28T02:19:19;11.00;99.90
33594;DHT22;19920;52.242;20.940;2024-02-28T02:21:52;10.90;99.90
33594;DHT22;19920;52.242;20.940;2024-02-28T02:24:18;10.90;99.90
33594;DHT22;19920;52.242;20.940;2024-02-28T02:26:44;11.00;99.90
33594;DHT22;19920;52.242;20.940;2024-02-28T02:29:12;10.90;99.90
33594;DHT22;19920;52.242;20.940;2024-02-28T02:31:37;11.00;99.90
33594;DHT22;19920;52.242;20.940;2024-02-28T02:34:03;11.00;99.90
33594;DHT22;19920;52.242;20.940;2024-02-28T02:36:29;11.00;99.90
33594;DHT22;19920;52.242;20.940;2024-02-28T02:38:54;11.00;99.90
33594;DHT22;19920;52.242;20.940;2024-02-28T02:41:20;11.00;99.90
33594;DHT22;19920;52.242;20.940;2024-02-28T02:43:45;11.00;99.90
33594;DHT22;19920;52.242;20.940;2024-02-28T02:46:11;10.90;99.90
33594;DHT22;19920;52.242;20.940;2024-02-28T02:48:37;10.90;99.90
33594;DHT22;19920;52.242;20.940;2024-02-28T02:51:03;11.00;99.90
33594;DHT22;19920;52.242;20.940;2024-02-28T02:53:28;10.90;99.90
33594;DHT22;19920;52.242;20.940;2024-02-28T02:55:54;10.90;99.90
33594;DHT22;19920;52.242;20.940;2024-02-28T02:58:19;10.90;99.90
33594;DHT22;19920;52.242;20.940;2024-02-28T03:00:45;10.80;99.90
33594;DHT22;19920;52.242;20.940;2024-02-28T03:03:11;10.70;99.90
33594;DHT22;19920;52.242;20.940;2024-02-28T03:05:36;10.70;99.90
33594;DHT22;19920;52.242;20.940;2024-02-28T03:08:02;10.70;99.90
33594;DHT22;19920;52.242;20.940;2024-02-28T03:10:28;10.70;99.90
33594;DHT22;19920;52.242;20.940;2024-02-28T03:12:54;10.60;99.90
33594;DHT22;19920;52.242;20.940;2024-02-28T03:15:20;10.50;99.90
33594;DHT22;19920;52.242;20.940;2024-02-28T03:17:45;10.50;99.90
33594;DHT22;19920;52.242;20.940;2024-02-28T03:20:11;10.50;99.90
33594;DHT22;19920;52.242;20.940;2024-02-28T03:22:39;10.60;99.90
33594;DHT22;19920;52.242;20.940;2024-02-28T03:25:05;10.50;99.90
33594;DHT22;19920;52.242;20.940;2024-02-28T03:27:31;10.60;99.90
33594;DHT22;19920;52.242;20.940;2024-02-28T03:29:56;10.60;99.90
33594;DHT22;19920;52.242;20.940;2024-02-28T03:32:22;10.70;99.90
33594;DHT22;19920;52.242;20.940;2024-02-28T03:34:48;10.70;99.90
33594;DHT22;19920;52.242;20.940;2024-02-28T03:37:14;10.80;99.90
33594;DHT22;19920;52.242;20.940;2024-02-28T03:39:40;10.90;99.90
33594;DHT22;19920;52.242;20.940;2024-02-28T03:42:05;10.90;99.90
33594;DHT22;19920;52.242;20.940;2024-02-28T03:44:31;10.90;99.90
33594;DHT22;19920;52.242;20.940;2024-02-28T03:46:57;10.90;99.90
33594;DHT22;19920;52.242;20.940;2024-02-28T03:49:22;10.90;99.90
33594;DHT22;19920;52.242;20.940;2024-02-28T03:51:48;10.90;99.90
33594;DHT22;19920;52.242;20.940;2024-02-28T03:54:13;10.90;99.90
33594;DHT22;19920;52.242;20.940;2024-02-28T03:56:39;10.80;99.90
33594;DHT22;19920;52.242;20.940;2024-02-28T03:59:05;10.80;99.90
33594;DHT22;19920;52.242;20.940;2024-02-28T04:01:30;10.80;99.90
33594;DHT22;19920;52.242;20.940;2024-02-28T04:03:56;10.80;99.90
33594;DHT22;19920;52.242;20.940;2024-02-28T04:06:21;10.80;99.90
33594;DHT22;19920;52.242;20.940;2024-02-28T04:08:47;10.70;99.90
33594;DHT22;19920;52.242;20.940;2024-02-28T04:11:13;10.70;99.90
33594;DHT22;19920;52.242;20.940;2024-02-28T04:13:39;10.80;99.90
33594;DHT22;19920;52.242;20.940;2024-02-28T04:16:06;10.80;99.90
33594;DHT22;19920;52.242;20.940;2024-02-28T04:18:31;10.80;99.90
33594;DHT22;19920;52.242;20.940;2024-02-28T04:20:58;10.70;99.90
33594;DHT22;19920;52.242;20.940;2024-02-28T04:23:24;10.70;99.90
33594;DHT22;19920;52.242;20.940;2024-02-28T04:25:50;10.70;99.90
33594;DHT22;19920;52.242;20.940;2024-02-28T04:28:15;10.70;99.90
33594;DHT22;19920;52.242;20.940;2024-02-28T04:30:41;10.70;99.90
33594;DHT22;19920;52.242;20.940;2024-02-28T04:33:06;10.60;99.90
33594;DHT22;19920;52.242;20.940;2024-02-28T04:35:32;10.60;99.90
33594;DHT22;19920;52.242;20.940;2024-02-28T04:37:58;10.50;99.90
33594;DHT22;19920;52.242;20.940;2024-02-28T04:40:24;10.50;99.90
33594;DHT22;19920;52.242;20.940;2024-02-28T04:42:49;10.50;99.90
33594;DHT22;19920;52.242;20.940;2024-02-28T04:45:15;10.50;99.90
33594;DHT22;19920;52.242;20.940;2024-02-28T04:47:41;10.50;99.90
33594;DHT22;19920;52.242;20.940;2024-02-28T04:50:07;10.50;99.90
33594;DHT22;19920;52.242;20.940;2024-02-28T04:52:33;10.50;99.90
33594;DHT22;19920;52.242;20.940;2024-02-28T04:54:59;10.50;99.90
33594;DHT22;19920;52.242;20.940;2024-02-28T04:57:24;10.60;99.90
33594;DHT22;19920;52.242;20.940;2024-02-28T04:59:50;10.50;99.90
33594;DHT22;19920;52.242;20.940;2024-02-28T05:02:16;10.50;99.90
33594;DHT22;19920;52.242;20.940;2024-02-28T05:04:42;10.50;99.90
33594;DHT22;19920;52.242;20.940;2024-02-28T05:07:08;10.50;99.90
33594;DHT22;19920;52.242;20.940;2024-02-28T05:09:34;10.50;99.90
33594;DHT22;19920;52.242;20.940;2024-02-28T05:11:59;10.50;99.90
33594;DHT22;19920;52.242;20.940;2024-02-28T05:14:25;10.50;99.90
33594;DHT22;19920;52.242;20.940;2024-02-28T05:16:51;10.50;99.90
33594;DHT22;19920;52.242;20.940;2024-02-28T05:19:16;10.50;99.90
33594;DHT22;19920;52.242;20.940;2024-02-28T05:21:44;10.50;99.90
33594;DHT22;19920;52.242;20.940;2024-02-28T05:24:10;10.50;99.90
33594;DHT22;19920;52.242;20.940;2024-02-28T05:26:36;10.50;99.90
33594;DHT22;19920;52.242;20.940;2024-02-28T05:29:02;10.50;99.90
33594;DHT22;19920;52.242;20.940;2024-02-28T05:31:28;10.50;99.90
33594;DHT22;19920;52.242;20.940;2024-02-28T05:33:56;10.50;99.90
33594;DHT22;19920;52.242;20.940;2024-02-28T05:36:25;10.50;99.90
33594;DHT22;19920;52.242;20.940;2024-02-28T05:38:52;10.50;99.90
33594;DHT22;19920;52.242;20.940;2024-02-28T05:41:18;10.50;99.90
33594;DHT22;19920;52.242;20.940;2024-02-28T05:43:44;10.50;99.90
33594;DHT22;19920;52.242;20.940;2024-02-28T05:46:09;10.50;99.90
33594;DHT22;19920;52.242;20.940;2024-02-28T05:48:35;10.50;99.90
33594;DHT22;19920;52.242;20.940;2024-02-28T05:51:01;10.50;99.90
33594;DHT22;19920;52.242;20.940;2024-02-28T05:53:27;10.40;99.90
33594;DHT22;19920;52.242;20.940;2024-02-28T05:55:54;10.50;99.90
33594;DHT22;19920;52.242;20.940;2024-02-28T05:58:22;10.50;99.90
33594;DHT22;19920;52.242;20.940;2024-02-28T06:00:49;10.40;99.90
33594;DHT22;19920;52.242;20.940;2024-02-28T06:03:15;10.50;99.90
33594;DHT22;19920;52.242;20.940;2024-02-28T06:05:41;10.50;99.90
33594;DHT22;19920;52.242;20.940;2024-02-28T06:08:06;10.50;99.90
33594;DHT22;19920;52.242;20.940;2024-02-28T06:10:32;10.50;99.90
33594;DHT22;19920;52.242;20.940;2024-02-28T06:12:57;10.50;99.90
33594;DHT22;19920;52.242;20.940;2024-02-28T06:15:23;10.60;99.90
33594;DHT22;19920;52.242;20.940;2024-02-28T06:17:49;10.60;99.90
33594;DHT22;19920;52.242;20.940;2024-02-28T06:20:14;10.60;99.90
33594;DHT22;19920;52.242;20.940;2024-02-28T06:22:40;10.70;99.90
33594;DHT22;19920;52.242;20.940;2024-02-28T06:25:06;10.70;99.90
33594;DHT22;19920;52.242;20.940;2024-02-28T06:27:39;10.70;99.90
33594;DHT22;19920;52.242;20.940;2024-02-28T06:30:06;10.80;99.90
33594;DHT22;19920;52.242;20.940;2024-02-28T06:32:32;10.80;99.90
33594;DHT22;19920;52.242;20.940;2024-02-28T06:34:57;10.80;99.90
33594;DHT22;19920;52.242;20.940;2024-02-28T06:37:23;10.80;99.90
33594;DHT22;19920;52.242;20.940;2024-02-28T06:39:49;10.80;99.90
33594;DHT22;19920;52.242;20.940;2024-02-28T06:42:14;10.80;99.90
33594;DHT22;19920;52.242;20.940;2024-02-28T06:44:40;10.80;99.90
33594;DHT22;19920;52.242;20.940;2024-02-28T06:47:07;10.90;99.90
33594;DHT22;19920;52.242;20.940;2024-02-28T06:49:34;10.90;99.90
33594;DHT22;19920;52.242;20.940;2024-02-28T06:52:00;11.00;99.90
33594;DHT22;19920;52.242;20.940;2024-02-28T06:54:29;11.00;99.90
33594;DHT22;19920;52.242;20.940;2024-02-28T06:56:55;11.10;99.90
33594;DHT22;19920;52.242;20.940;2024-02-28T06:59:21;11.20;99.90
33594;DHT22;19920;52.242;20.940;2024-02-28T07:01:46;11.20;99.90
33594;DHT22;19920;52.242;20.940;2024-02-28T07:04:12;11.30;99.90
33594;DHT22;19920;52.242;20.940;2024-02-28T07:06:38;11.30;99.90
33594;DHT22;19920;52.242;20.940;2024-02-28T07:09:04;11.30;99.90
33594;DHT22;19920;52.242;20.940;2024-02-28T07:11:29;11.30;99.90
33594;DHT22;19920;52.242;20.940;2024-02-28T07:13:55;11.30;99.90
33594;DHT22;19920;52.242;20.940;2024-02-28T07:16:23;11.30;99.90
33594;DHT22;19920;52.242;20.940;2024-02-28T07:18:48;11.40;99.90
33594;DHT22;19920;52.242;20.940;2024-02-28T07:21:14;11.50;99.90
33594;DHT22;19920;52.242;20.940;2024-02-28T07:23:40;11.40;99.90
33594;DHT22;19920;52.242;20.940;2024-02-28T07:26:06;11.40;99.90
33594;DHT22;19920;52.242;20.940;2024-02-28T07:28:32;11.50;99.90
33594;DHT22;19920;52.242;20.940;2024-02-28T07:30:58;11.50;99.90
33594;DHT22;19920;52.242;20.940;2024-02-28T07:33:23;11.60;99.90
33594;DHT22;19920;52.242;20.940;2024-02-28T07:35:52;11.50;99.90
33594;DHT22;19920;52.242;20.940;2024-02-28T07:38:18;11.60;99.90
33594;DHT22;19920;52.242;20.940;2024-02-28T07:40:47;11.60;99.90
33594;DHT22;19920;52.242;20.940;2024-02-28T07:43:13;11.80;99.90
33594;DHT22;19920;52.242;20.940;2024-02-28T07:45:39;11.90;99.90
33594;DHT22;19920;52.242;20.940;2024-02-28T07:48:06;11.90;99.90
33594;DHT22;19920;52.242;20.940;2024-02-28T07:50:33;12.00;99.90
33594;DHT22;19920;52.242;20.940;2024-02-28T07:52:58;11.90;99.90
33594;DHT22;19920;52.242;20.940;2024-02-28T07:55:24;12.10;99.90
33594;DHT22;19920;52.242;20.940;2024-02-28T07:57:53;12.30;99.90
33594;DHT22;19920;52.242;20.940;2024-02-28T08:00:19;12.20;99.90
33594;DHT22;19920;52.242;20.940;2024-02-28T08:02:45;12.30;99.90
33594;DHT22;19920;52.242;20.940;2024-02-28T08:05:12;12.20;99.90
33594;DHT22;19920;52.242;20.940;2024-02-28T08:07:38;12.30;99.90
33594;DHT22;19920;52.242;20.940;2024-02-28T08:10:04;12.40;99.90
33594;DHT22;19920;52.242;20.940;2024-02-28T08:12:32;12.40;99.90
33594;DHT22;19920;52.242;20.940;2024-02-28T08:14:58;12.30;99.90
33594;DHT22;19920;52.242;20.940;2024-02-28T08:17:24;12.30;99.90
33594;DHT22;19920;52.242;20.940;2024-02-28T08:19:49;12.30;99.90
33594;DHT22;19920;52.242;20.940;2024-02-28T08:22:15;12.30;99.90
33594;DHT22;19920;52.242;20.940;2024-02-28T08:24:41;12.30;99.90
33594;DHT22;19920;52.242;20.940;2024-02-28T08:27:07;12.40;99.90
33594;DHT22;19920;52.242;20.940;2024-02-28T08:29:32;12.50;99.90
33594;DHT22;19920;52.242;20.940;2024-02-28T08:32:01;12.50;99.90
33594;DHT22;19920;52.242;20.940;2024-02-28T08:34:26;12.60;99.90
33594;DHT22;19920;52.242;20.940;2024-02-28T08:36:52;12.60;99.90
33594;DHT22;19920;52.242;20.940;2024-02-28T08:39:18;12.60;99.90
33594;DHT22;19920;52.242;20.940;2024-02-28T08:41:43;12.60;99.90
33594;DHT22;19920;52.242;20.940;2024-02-28T08:44:09;12.60;99.90
33594;DHT22;19920;52.242;20.940;2024-02-28T08:46:35;12.60;99.90
33594;DHT22;19920;52.242;20.940;2024-02-28T08:49:00;12.60;99.90
33594;DHT22;19920;52.242;20.940;2024-02-28T08:51:26;12.80;99.90
33594;DHT22;19920;52.242;20.940;2024-02-28T08:53:52;12.90;99.90
33594;DHT22;19920;52.242;20.940;2024-02-28T08:56:20;12.90;99.90
33594;DHT22;19920;52.242;20.940;2024-02-28T08:58:46;13.00;99.90
33594;DHT22;19920;52.242;20.940;2024-02-28T09:01:15;13.00;99.90
33594;DHT22;19920;52.242;20.940;2024-02-28T09:03:41;13.10;99.90
33594;DHT22;19920;52.242;20.940;2024-02-28T09:06:06;13.10;99.90
33594;DHT22;19920;52.242;20.940;2024-02-28T09:08:32;13.10;99.90
33594;DHT22;19920;52.242;20.940;2024-02-28T09:10:58;13.10;99.90
33594;DHT22;19920;52.242;20.940;2024-02-28T09:13:23;13.10;99.90
33594;DHT22;19920;52.242;20.940;2024-02-28T09:15:49;13.00;99.90
33594;DHT22;19920;52.242;20.940;2024-02-28T09:18:16;13.10;99.90
33594;DHT22;19920;52.242;20.940;2024-02-28T09:20:41;13.10;99.90
33594;DHT22;19920;52.242;20.940;2024-02-28T09:23:07;13.10;99.90
33594;DHT22;19920;52.242;20.940;2024-02-28T09:25:33;13.10;99.90
33594;DHT22;19920;52.242;20.940;2024-02-28T09:28:01;13.20;99.90
33594;DHT22;19920;52.242;20.940;2024-02-28T09:30:27;13.40;99.90
33594;DHT22;19920;52.242;20.940;2024-02-28T09:32:53;13.40;99.90
33594;DHT22;19920;52.242;20.940;2024-02-28T09:35:19;13.40;99.90
33594;DHT22;19920;52.242;20.940;2024-02-28T09:37:45;13.30;99.90
33594;DHT22;19920;52.242;20.940;2024-02-28T09:40:11;13.30;99.90
33594;DHT22;19920;52.242;20.940;2024-02-28T09:42:37;13.40;99.90
33594;DHT22;19920;52.242;20.940;2024-02-28T09:45:04;13.40;99.90
33594;DHT22;19920;52.242;20.940;2024-02-28T09:47:30;13.40;99.90
33594;DHT22;19920;52.242;20.940;2024-02-28T09:49:57;13.50;99.90
33594;DHT22;19920;52.242;20.940;2024-02-28T09:52:26;13.40;99.90
33594;DHT22;19920;52.242;20.940;2024-02-28T09:54:53;13.50;99.90
33594;DHT22;19920;52.242;20.940;2024-02-28T09:57:18;13.40;99.90
33594;DHT22;19920;52.242;20.940;2024-02-28T09:59:44;13.40;99.90
33594;DHT22;19920;52.242;20.940;2024-02-28T10:02:10;13.40;99.90
33594;DHT22;19920;52.242;20.940;2024-02-28T10:04:37;13.40;99.90
33594;DHT22;19920;52.242;20.940;2024-02-28T10:07:15;13.50;99.90
33594;DHT22;19920;52.242;20.940;2024-02-28T10:09:41;13.40;99.90
33594;DHT22;19920;52.242;20.940;2024-02-28T10:12:08;13.40;99.90
33594;DHT22;19920;52.242;20.940;2024-02-28T10:14:34;13.30;99.90
33594;DHT22;19920;52.242;20.940;2024-02-28T10:17:00;13.30;99.90
33594;DHT22;19920;52.242;20.940;2024-02-28T10:19:25;13.20;99.90
33594;DHT22;19920;52.242;20.940;2024-02-28T10:21:51;13.20;99.90
33594;DHT22;19920;52.242;20.940;2024-02-28T10:24:16;13.20;99.90
33594;DHT22;19920;52.242;20.940;2024-02-28T10:26:46;13.20;99.90
33594;DHT22;19920;52.242;20.940;2024-02-28T10:29:23;13.20;99.90
33594;DHT22;19920;52.242;20.940;2024-02-28T10:31:49;13.10;99.90
33594;DHT22;19920;52.242;20.940;2024-02-28T10:34:17;13.00;99.90
33594;DHT22;19920;52.242;20.940;2024-02-28T10:36:43;13.00;99.90
33594;DHT22;19920;52.242;20.940;2024-02-28T10:39:10;13.00;99.90
33594;DHT22;19920;52.242;20.940;2024-02-28T10:41:38;12.90;99.90
33594;DHT22;19920;52.242;20.940;2024-02-28T10:44:04;12.90;99.90
33594;DHT22;19920;52.242;20.940;2024-02-28T10:46:30;12.90;99.90
33594;DHT22;19920;52.242;20.940;2024-02-28T10:48:56;12.90;99.90
33594;DHT22;19920;52.242;20.940;2024-02-28T10:51:26;13.00;99.90
33594;DHT22;19920;52.242;20.940;2024-02-28T10:54:20;12.90;99.90
33594;DHT22;19920;52.242;20.940;2024-02-28T10:56:44;12.90;99.90
33594;DHT22;19920;52.242;20.940;2024-02-28T10:59:11;12.90;99.90
33594;DHT22;19920;52.242;20.940;2024-02-28T11:01:40;12.90;99.90
33594;DHT22;19920;52.242;20.940;2024-02-28T11:04:10;12.90;99.90
33594;DHT22;19920;52.242;20.940;2024-02-28T11:06:51;12.80;99.90
33594;DHT22;19920;52.242;20.940;2024-02-28T11:09:21;12.70;99.90
33594;DHT22;19920;52.242;20.940;2024-02-28T11:11:51;12.60;99.90
33594;DHT22;19920;52.242;20.940;2024-02-28T11:14:17;12.60;99.90
33594;DHT22;19920;52.242;20.940;2024-02-28T11:16:47;12.60;99.90
33594;DHT22;19920;52.242;20.940;2024-02-28T11:19:20;12.60;99.90
33594;DHT22;19920;52.242;20.940;2024-02-28T11:21:55;12.60;99.90
33594;DHT22;19920;52.242;20.940;2024-02-28T11:24:25;12.60;99.90
33594;DHT22;19920;52.242;20.940;2024-02-28T11:26:53;12.50;99.90
33594;DHT22;19920;52.242;20.940;2024-02-28T11:29:26;12.60;99.90
33594;DHT22;19920;52.242;20.940;2024-02-28T11:31:53;12.60;99.90
33594;DHT22;19920;52.242;20.940;2024-02-28T11:34:19;12.50;99.90
33594;DHT22;19920;52.242;20.940;2024-02-28T11:36:49;12.50;99.90
33594;DHT22;19920;52.242;20.940;2024-02-28T11:39:16;12.60;99.90
33594;DHT22;19920;52.242;20.940;2024-02-28T11:41:43;12.50;99.90
33594;DHT22;19920;52.242;20.940;2024-02-28T11:44:12;12.40;99.90
33594;DHT22;19920;52.242;20.940;2024-02-28T11:46:42;12.30;99.90
33594;DHT22;19920;52.242;20.940;2024-02-28T11:49:07;12.20;99.90
33594;DHT22;19920;52.242;20.940;2024-02-28T11:51:33;12.20;99.90
33594;DHT22;19920;52.242;20.940;2024-02-28T11:54:01;12.20;99.90
33594;DHT22;19920;52.242;20.940;2024-02-28T11:56:27;12.00;99.90
33594;DHT22;19920;52.242;20.940;2024-02-28T11:58:57;11.70;99.90
33594;DHT22;19920;52.242;20.940;2024-02-28T12:01:45;11.50;99.90
33594;DHT22;19920;52.242;20.940;2024-02-28T12:04:12;11.40;99.90
33594;DHT22;19920;52.242;20.940;2024-02-28T12:06:38;11.30;99.90
33594;DHT22;19920;52.242;20.940;2024-02-28T12:09:06;11.30;99.90
33594;DHT22;19920;52.242;20.940;2024-02-28T12:11:35;11.20;99.90
33594;DHT22;19920;52.242;20.940;2024-02-28T12:14:03;11.20;99.90
33594;DHT22;19920;52.242;20.940;2024-02-28T12:16:30;11.30;99.90
33594;DHT22;19920;52.242;20.940;2024-02-28T12:18:55;11.20;99.90
33594;DHT22;19920;52.242;20.940;2024-02-28T12:21:21;11.00;99.90
33594;DHT22;19920;52.242;20.940;2024-02-28T12:23:47;11.10;99.90
33594;DHT22;19920;52.242;20.940;2024-02-28T12:26:18;11.00;99.90
33594;DHT22;19920;52.242;20.940;2024-02-28T12:28:44;10.80;99.90
33594;DHT22;19920;52.242;20.940;2024-02-28T12:31:10;10.70;99.90
33594;DHT22;19920;52.242;20.940;2024-02-28T12:33:38;10.60;99.90
33594;DHT22;19920;52.242;20.940;2024-02-28T12:36:04;10.60;99.90
33594;DHT22;19920;52.242;20.940;2024-02-28T12:38:30;10.70;99.90
33594;DHT22;19920;52.242;20.940;2024-02-28T12:40:57;10.70;99.90
33594;DHT22;19920;52.242;20.940;2024-02-28T12:43:23;10.80;99.90
33594;DHT22;19920;52.242;20.940;2024-02-28T12:45:51;10.90;99.90
33594;DHT22;19920;52.242;20.940;2024-02-28T12:48:16;10.80;99.90
33594;DHT22;19920;52.242;20.940;2024-02-28T12:50:42;10.90;99.90
33594;DHT22;19920;52.242;20.940;2024-02-28T12:53:09;11.00;99.90
33594;DHT22;19920;52.242;20.940;2024-02-28T12:55:34;11.10;99.90
33594;DHT22;19920;52.242;20.940;2024-02-28T12:58:01;11.10;99.90
33594;DHT22;19920;52.242;20.940;2024-02-28T13:00:30;11.00;99.90
33594;DHT22;19920;52.242;20.940;2024-02-28T13:02:55;10.90;99.90
33594;DHT22;19920;52.242;20.940;2024-02-28T13:05:21;11.00;99.90
33594;DHT22;19920;52.242;20.940;2024-02-28T13:07:46;11.00;99.90
33594;DHT22;19920;52.242;20.940;2024-02-28T13:10:12;11.00;99.90
33594;DHT22;19920;52.242;20.940;2024-02-28T13:12:38;10.90;99.90
33594;DHT22;19920;52.242;20.940;2024-02-28T13:15:05;10.70;99.90
33594;DHT22;19920;52.242;20.940;2024-02-28T13:17:31;10.60;99.90
33594;DHT22;19920;52.242;20.940;2024-02-28T13:19:56;10.50;99.90
33594;DHT22;19920;52.242;20.940;2024-02-28T13:22:22;10.50;99.90
33594;DHT22;19920;52.242;20.940;2024-02-28T13:24:48;10.40;99.90
33594;DHT22;19920;52.242;20.940;2024-02-28T13:27:13;10.40;99.90
33594;DHT22;19920;52.242;20.940;2024-02-28T13:29:39;10.30;99.90
33594;DHT22;19920;52.242;20.940;2024-02-28T13:32:05;10.30;99.90
33594;DHT22;19920;52.242;20.940;2024-02-28T13:34:30;10.40;99.90
33594;DHT22;19920;52.242;20.940;2024-02-28T13:36:58;10.40;99.90
33594;DHT22;19920;52.242;20.940;2024-02-28T13:39:24;10.30;99.90
33594;DHT22;19920;52.242;20.940;2024-02-28T13:41:50;10.30;99.90
33594;DHT22;19920;52.242;20.940;2024-02-28T13:44:19;10.30;99.90
33594;DHT22;19920;52.242;20.940;2024-02-28T13:46:45;10.20;99.90
33594;DHT22;19920;52.242;20.940;2024-02-28T13:49:13;10.10;99.90
33594;DHT22;19920;52.242;20.940;2024-02-28T13:51:39;10.00;99.90
33594;DHT22;19920;52.242;20.940;2024-02-28T13:54:05;9.90;99.90
33594;DHT22;19920;52.242;20.940;2024-02-28T13:56:31;9.90;99.90
33594;DHT22;19920;52.242;20.940;2024-02-28T13:58:57;9.90;99.90
33594;DHT22;19920;52.242;20.940;2024-02-28T14:01:23;9.80;99.90
33594;DHT22;19920;52.242;20.940;2024-02-28T14:03:48;9.80;99.90
33594;DHT22;19920;52.242;20.940;2024-02-28T14:06:14;9.70;99.90
33594;DHT22;19920;52.242;20.940;2024-02-28T14:08:40;9.80;99.90
33594;DHT22;19920;52.242;20.940;2024-02-28T14:11:05;9.80;99.90
33594;DHT22;19920;52.242;20.940;2024-02-28T14:13:31;9.70;99.90
33594;DHT22;19920;52.242;20.940;2024-02-28T14:15:57;9.80;99.90
33594;DHT22;19920;52.242;20.940;2024-02-28T14:18:22;9.80;99.90
33594;DHT22;19920;52.242;20.940;2024-02-28T14:20:48;9.70;99.90
33594;DHT22;19920;52.242;20.940;2024-02-28T14:23:13;9.80;99.90
33594;DHT22;19920;52.242;20.940;2024-02-28T14:25:39;9.80;99.90
33594;DHT22;19920;52.242;20.940;2024-02-28T14:28:07;9.80;99.90
33594;DHT22;19920;52.242;20.940;2024-02-28T14:30:32;9.80;99.90
33594;DHT22;19920;52.242;20.940;2024-02-28T14:32:59;9.80;99.90
33594;DHT22;19920;52.242;20.940;2024-02-28T14:35:25;9.80;99.90
33594;DHT22;19920;52.242;20.940;2024-02-28T14:37:50;9.80;99.90
33594;DHT22;19920;52.242;20.940;2024-02-28T14:40:17;9.80;99.90
33594;DHT22;19920;52.242;20.940;2024-02-28T14:42:43;9.60;99.90
33594;DHT22;19920;52.242;20.940;2024-02-28T14:45:11;9.70;99.90
33594;DHT22;19920;52.242;20.940;2024-02-28T14:47:41;9.60;99.90
33594;DHT22;19920;52.242;20.940;2024-02-28T14:50:07;9.70;99.90
33594;DHT22;19920;52.242;20.940;2024-02-28T14:52:40;9.70;99.90
33594;DHT22;19920;52.242;20.940;2024-02-28T14:55:07;9.70;99.90
33594;DHT22;19920;52.242;20.940;2024-02-28T14:57:34;9.70;99.90
33594;DHT22;19920;52.242;20.940;2024-02-28T15:00:00;9.70;99.90
33594;DHT22;19920;52.242;20.940;2024-02-28T15:02:26;9.70;99.90
33594;DHT22;19920;52.242;20.940;2024-02-28T15:04:51;9.60;99.90
33594;DHT22;19920;52.242;20.940;2024-02-28T15:07:17;9.70;99.90
33594;DHT22;19920;52.242;20.940;2024-02-28T15:09:43;9.60;99.90
33594;DHT22;19920;52.242;20.940;2024-02-28T15:12:09;9.60;99.90